Chester, West Virginia
Current Conditions -  °F | °C
As of 7:47 AM on Thursday 23 Oct 2014 (Local Time) from KBVI Reporting Station
Overcast Overcast  
Wind Chill: 45°   Ceiling: 1400
Heat Index: 45°   Visibility: 10mi
Dew Point: 43°   Wind: 3mph
Humidity: 93%   Direction: 320°NW
Pressure: 30.16"   Gusts: NA
Location:  40.61°N, 80.56°W
Report Text: KBVI 231147Z 32003KT 10SM OVC014 07/06 A3016
Loading
Personal Weather Stations






























Interactive Weather Map
Tropical Storm Tracking
New forecast layout! Learn more

10-Day Weather Forecast

Advertisements
Track Severe Weather on mobile